Airfield :
LOGIN :

Register | Disclaimer

   EN    FR    IT 

 










Legend :    VFR   Marginal VFR   IFR   Intensive IFR   Very Intensive IFR
Visi :
Ceiling :
>= 8 km
>= 3000ft
5 to 8 km
1000 to 3000 ft
1500m to 5 km
500 to 1000 ft
800 to 1500m
200 to 500 ft
< 800m
< 200 ft
Symbols :   Thunderstorms  Fog  Heavy snow  Heavy precipitations  Wind > 20 kt
SIGMETs :     Misc.  Thunderstorms  Icing  Turbulence  Mountain Waves  Volcanic Ashes







- Airport Elevation : 1058 ft
- IATA code : SCN


EDDR - Saarbrücken

CURRENT METAR :
  • 151550Z 22007KT 9999 -SHRASN BKN016TCU 04/01 Q0997 TEMPO 4000 SHRASN BKN008

EXPIRED METARs :
  • 151520Z 22009KT 9999 -SHRASN FEW012 SCT018TCU BKN035 04/01 Q0997 TEMPO 4000 SHRASN BKN008
  • 151450Z 22009KT 9999 FEW017 SCT045 BKN060 04/01 Q0997 NOSIG
  • 151420Z 24010KT 9999 FEW017 BKN060 04/01 Q0997 NOSIG
  • 151350Z 23013KT 9999 FEW010 BKN015 BKN050 04/02 Q0997 NOSIG
  • 151320Z 23014KT 9999 -SHRASN FEW011 BKN013TCU BKN040 03/02 Q0997 BECMG SCT013
  • 151250Z 24016KT 9999 -SHRA SCT025TCU BKN040 04/00 Q0997 NOSIG

TAF TAF EDDR
Valid from the 15 at 12:00 until the 16 at 12:00 UTC


151100Z 1512/1612 20007KT 9999 BKN015
TEMPO 1512/1514 22015G25KT
TEMPO 1512/1603 1500 SHSN BKN003CB
TEMPO 1603/1607 1200 -SN BR BKN002
BECMG 1603/1606 28006KT
PROB30
TEMPO 1607/1612 1500 SHSN BKN003CB
No reported NOTAMs for that airfield.



MET'MAP, your aeronautical weather chart ! - Copyright ORBIFLY December 2007 - Disclaimer

ORBIFLY MET'MAP TEAM :

Programming & Development : Alexandra Zaïnal
Concept & Development : Baudouin d'Aumeries
Co-Development & Prog : Marc-Olivier Méhu
Technical & hardware support : Manuel Goepfert

Contact : metmap@orbifly.com




SOURCES & CREDITS :

   NOAA